createdAt,value
2017-09-27T00:00:41.838Z,15.94
2017-09-27T00:01:41.809Z,15.95
2017-09-27T00:02:41.482Z,15.89
2017-09-27T00:03:41.760Z,15.95
2017-09-27T00:04:41.440Z,15.97
2017-09-27T00:05:41.720Z,15.95
2017-09-27T00:06:41.399Z,15.87
2017-09-27T00:07:41.399Z,16
2017-09-27T00:08:41.050Z,15.92
2017-09-27T00:09:41.439Z,15.95
2017-09-27T00:10:41.338Z,15.95
2017-09-27T00:11:41.315Z,15.95
2017-09-27T00:12:41.289Z,15.9
2017-09-27T00:13:41.580Z,15.97
2017-09-27T00:14:41.255Z,15.97
2017-09-27T00:15:41.299Z,15.86
2017-09-27T00:16:41.540Z,15.87
2017-09-27T00:17:41.518Z,15.9
2017-09-27T00:18:41.502Z,15.76
2017-09-27T00:19:41.183Z,15.76
2017-09-27T00:20:41.449Z,15.9
2017-09-27T00:21:41.180Z,15.89
2017-09-27T00:22:41.129Z,15.89
2017-09-27T00:23:41.133Z,15.86
2017-09-27T00:24:41.078Z,15.9
2017-09-27T00:25:41.209Z,15.95
2017-09-27T00:26:41.063Z,16.01
2017-09-27T00:27:40.761Z,15.9
2017-09-27T00:28:40.703Z,15.86
2017-09-27T00:29:41.051Z,15.75
2017-09-27T00:30:41.345Z,15.9
2017-09-27T00:31:41.289Z,15.89
2017-09-27T00:32:41.300Z,15.87
2017-09-27T00:33:40.929Z,15.85
2017-09-27T00:34:41.231Z,15.82
2017-09-27T00:35:41.305Z,15.97
2017-09-27T00:36:41.201Z,15.76
2017-09-27T00:37:41.227Z,15.77
2017-09-27T00:38:40.832Z,15.79
2017-09-27T00:39:40.926Z,15.82
2017-09-27T00:40:40.850Z,15.82
2017-09-27T00:41:40.830Z,15.83
2017-09-27T00:42:41.129Z,15.83
2017-09-27T00:43:41.050Z,15.86
2017-09-27T00:44:41.083Z,15.79
2017-09-27T00:45:40.732Z,15.83
2017-09-27T00:46:40.706Z,15.82
2017-09-27T00:47:41.082Z,15.76
2017-09-27T00:48:40.699Z,15.72
2017-09-27T00:49:40.694Z,15.8
2017-09-27T00:50:40.950Z,15.79
2017-09-27T00:51:40.620Z,15.86
2017-09-27T00:52:40.901Z,15.83
2017-09-27T00:53:40.967Z,15.77
2017-09-27T00:54:40.946Z,15.79
2017-09-27T00:55:40.890Z,15.77
2017-09-27T00:56:40.861Z,15.82
2017-09-27T00:57:40.818Z,15.72
2017-09-27T00:58:40.801Z,15.76
2017-09-27T00:59:40.473Z,15.72
2017-09-27T01:00:40.761Z,15.77
2017-09-27T01:01:40.741Z,15.76
2017-09-27T01:02:40.725Z,15.77
2017-09-27T01:03:40.713Z,15.76
2017-09-27T01:04:40.716Z,15.75
2017-09-27T01:05:40.764Z,15.76
2017-09-27T01:06:40.674Z,15.76
2017-09-27T01:07:40.320Z,15.72
2017-09-27T01:08:40.296Z,15.72
2017-09-27T01:09:40.629Z,15.77
2017-09-27T01:10:40.269Z,15.82
2017-09-27T01:11:40.250Z,15.82
2017-09-27T01:12:40.271Z,15.79
2017-09-27T01:13:40.221Z,15.77
2017-09-27T01:14:40.518Z,15.85
2017-09-27T01:15:40.180Z,15.8
2017-09-27T01:16:40.190Z,15.77
2017-09-27T01:17:40.539Z,15.71
2017-09-27T01:18:40.457Z,15.8
2017-09-27T01:19:40.100Z,15.71
2017-09-27T01:20:40.402Z,15.72
2017-09-27T01:21:40.391Z,15.76
2017-09-27T01:22:40.050Z,15.72
2017-09-27T01:23:39.720Z,15.64
2017-09-27T01:24:40.338Z,15.67
2017-09-27T01:25:39.995Z,15.76
2017-09-27T01:26:39.999Z,15.72
2017-09-27T01:27:40.410Z,15.72
2017-09-27T01:28:39.640Z,15.69
2017-09-27T01:29:39.927Z,15.71
2017-09-27T01:30:40.222Z,15.67
2017-09-27T01:31:40.221Z,15.68
2017-09-27T01:32:39.891Z,15.72
2017-09-27T01:33:39.873Z,15.72
2017-09-27T01:34:40.150Z,15.71
2017-09-27T01:35:40.181Z,15.75
2017-09-27T01:36:39.799Z,15.79
2017-09-27T01:37:39.790Z,15.75
2017-09-27T01:38:40.089Z,15.69
2017-09-27T01:39:39.750Z,15.76
2017-09-27T01:40:39.745Z,15.71
2017-09-27T01:41:39.720Z,15.71
2017-09-27T01:42:39.400Z,15.72
2017-09-27T01:43:39.670Z,15.62
2017-09-27T01:44:39.969Z,15.61
2017-09-27T01:45:39.951Z,15.62
2017-09-27T01:46:39.949Z,15.69
2017-09-27T01:47:39.617Z,15.69
2017-09-27T01:48:39.923Z,15.71
2017-09-27T01:49:39.900Z,15.65
2017-09-27T01:50:39.250Z,15.61
2017-09-27T01:51:39.537Z,15.52
2017-09-27T01:52:39.821Z,15.53
2017-09-27T01:53:39.820Z,15.49
2017-09-27T01:54:39.803Z,15.58
2017-09-27T01:55:39.491Z,15.58
2017-09-27T01:56:39.453Z,15.53
2017-09-27T01:57:39.121Z,15.54
2017-09-27T01:58:39.720Z,15.57
2017-09-27T01:59:39.418Z,15.47
2017-09-27T02:00:39.700Z,15.49
2017-09-27T02:01:39.364Z,15.5
2017-09-27T02:02:39.351Z,15.47
2017-09-27T02:03:39.651Z,15.54
2017-09-27T02:04:39.309Z,15.54
2017-09-27T02:05:39.603Z,15.49
2017-09-27T02:06:39.580Z,15.54
2017-09-27T02:07:39.257Z,15.5
2017-09-27T02:08:39.552Z,15.52
2017-09-27T02:09:39.220Z,15.42
2017-09-27T02:10:39.200Z,15.49
2017-09-27T02:11:39.180Z,15.49
2017-09-27T02:12:39.514Z,15.54
2017-09-27T02:13:38.839Z,15.53
2017-09-27T02:14:39.460Z,15.54
2017-09-27T02:15:39.110Z,15.57
2017-09-27T02:16:38.785Z,15.53
2017-09-27T02:17:39.083Z,15.54
2017-09-27T02:18:39.062Z,15.5
2017-09-27T02:19:39.041Z,15.68
2017-09-27T02:20:39.020Z,15.62
2017-09-27T02:21:39.015Z,15.6
2017-09-27T02:22:39.289Z,15.6
2017-09-27T02:23:38.657Z,15.68
2017-09-27T02:24:38.961Z,15.6
2017-09-27T02:25:39.242Z,15.58
2017-09-27T02:26:39.221Z,15.43
2017-09-27T02:27:39.213Z,15.54
2017-09-27T02:28:38.870Z,15.53
2017-09-27T02:29:38.881Z,15.54
2017-09-27T02:30:39.159Z,15.5
2017-09-27T02:31:38.820Z,15.47
2017-09-27T02:32:39.131Z,15.47
2017-09-27T02:33:38.800Z,15.49
2017-09-27T02:34:39.079Z,15.46
2017-09-27T02:35:38.755Z,15.5
2017-09-27T02:36:39.060Z,15.54
2017-09-27T02:37:38.721Z,15.49
2017-09-27T02:38:38.417Z,15.57
2017-09-27T02:39:39.000Z,15.57
2017-09-27T02:40:38.722Z,15.58
2017-09-27T02:41:38.663Z,15.58
2017-09-27T02:42:38.629Z,15.52
2017-09-27T02:43:38.613Z,15.6
2017-09-27T02:44:38.293Z,15.6
2017-09-27T02:45:38.590Z,15.65
2017-09-27T02:46:38.881Z,15.64
2017-09-27T02:47:38.851Z,15.5
2017-09-27T02:48:38.531Z,15.57
2017-09-27T02:49:38.508Z,15.54
2017-09-27T02:50:38.793Z,15.57
2017-09-27T02:51:38.165Z,15.58
2017-09-27T02:52:38.753Z,15.53
2017-09-27T02:53:38.441Z,15.64
2017-09-27T02:54:38.722Z,15.62
2017-09-27T02:55:38.402Z,15.54
2017-09-27T02:56:38.402Z,15.64
2017-09-27T02:57:38.360Z,15.6
2017-09-27T02:58:38.349Z,15.58
2017-09-27T02:59:38.650Z,15.65
2017-09-27T03:00:38.310Z,15.65
2017-09-27T03:01:38.296Z,15.65
2017-09-27T03:02:38.574Z,15.72
2017-09-27T03:03:38.574Z,15.75
2017-09-27T03:04:38.562Z,15.71
2017-09-27T03:05:38.532Z,15.68
2017-09-27T03:06:38.195Z,15.68
2017-09-27T03:07:38.493Z,15.67
2017-09-27T03:08:38.171Z,15.62
2017-09-27T03:09:38.449Z,15.57
2017-09-27T03:10:38.481Z,15.58
2017-09-27T03:11:38.417Z,15.6
2017-09-27T03:12:38.091Z,15.6
2017-09-27T03:13:38.385Z,15.67
2017-09-27T03:14:38.062Z,15.75
2017-09-27T03:15:38.353Z,15.72
2017-09-27T03:16:38.346Z,15.72
2017-09-27T03:17:38.324Z,15.68
2017-09-27T03:18:38.300Z,15.68
2017-09-27T03:19:37.969Z,15.68
2017-09-27T03:20:38.261Z,15.71
2017-09-27T03:21:38.261Z,15.71
2017-09-27T03:22:38.219Z,15.71
2017-09-27T03:23:37.901Z,15.69
2017-09-27T03:24:37.885Z,15.61
2017-09-27T03:25:38.175Z,15.61
2017-09-27T03:26:37.841Z,15.6
2017-09-27T03:27:38.127Z,15.54
2017-09-27T03:28:38.123Z,15.67
2017-09-27T03:29:37.789Z,15.57
2017-09-27T03:30:38.103Z,15.46
2017-09-27T03:31:37.761Z,15.43
2017-09-27T03:32:38.049Z,15.31
2017-09-27T03:33:38.020Z,15.29
2017-09-27T03:34:38.019Z,15.32
2017-09-27T03:35:38.004Z,15.4
2017-09-27T03:36:37.979Z,15.39
2017-09-27T03:37:37.972Z,15.44
2017-09-27T03:38:37.935Z,15.4
2017-09-27T03:39:37.928Z,15.5
2017-09-27T03:40:37.600Z,15.46
2017-09-27T03:41:37.590Z,15.42
2017-09-27T03:42:37.870Z,15.52
2017-09-27T03:43:37.870Z,15.46
2017-09-27T03:44:37.254Z,15.52
2017-09-27T03:45:37.820Z,15.52
2017-09-27T03:46:37.224Z,15.57
2017-09-27T03:47:37.466Z,15.6
2017-09-27T03:48:37.141Z,15.54
2017-09-27T03:49:37.440Z,15.58
2017-09-27T03:50:37.730Z,15.47
2017-09-27T03:51:37.403Z,15.39
2017-09-27T03:52:37.383Z,15.44
2017-09-27T03:53:37.370Z,15.53
2017-09-27T03:54:37.360Z,15.46
2017-09-27T03:55:37.640Z,15.46
2017-09-27T03:56:37.629Z,15.53
2017-09-27T03:57:37.289Z,15.58
2017-09-27T03:58:37.590Z,15.5
2017-09-27T03:59:37.569Z,15.54
2017-09-27T04:00:37.241Z,15.49
2017-09-27T04:01:37.525Z,15.43
2017-09-27T04:02:37.504Z,15.43
2017-09-27T04:03:37.504Z,15.47
2017-09-27T04:04:37.179Z,15.49
2017-09-27T04:05:37.153Z,15.53
2017-09-27T04:06:37.130Z,15.44
2017-09-27T04:07:37.112Z,15.54
2017-09-27T04:08:37.400Z,15.57
2017-09-27T04:09:37.116Z,15.54
2017-09-27T04:10:37.360Z,15.43
2017-09-27T04:11:37.350Z,15.6
2017-09-27T04:12:36.722Z,15.54
2017-09-27T04:13:37.069Z,15.53
2017-09-27T04:14:37.304Z,15.54
2017-09-27T04:15:37.030Z,15.52
2017-09-27T04:16:36.991Z,15.64
2017-09-27T04:17:37.251Z,15.53
2017-09-27T04:18:37.221Z,15.58
2017-09-27T04:19:36.954Z,15.58
2017-09-27T04:20:37.190Z,15.49
2017-09-27T04:21:36.565Z,15.64
2017-09-27T04:22:36.850Z,15.57
2017-09-27T04:23:37.141Z,15.53
2017-09-27T04:24:36.819Z,15.53
2017-09-27T04:25:36.479Z,15.49
2017-09-27T04:26:37.072Z,15.5
2017-09-27T04:27:36.769Z,15.5
2017-09-27T04:28:36.750Z,15.58
2017-09-27T04:29:37.040Z,15.58
2017-09-27T04:30:36.700Z,15.53
2017-09-27T04:31:36.390Z,15.61
2017-09-27T04:32:36.673Z,15.62
2017-09-27T04:33:36.703Z,15.64
2017-09-27T04:34:36.632Z,15.57
2017-09-27T04:35:36.622Z,15.58
2017-09-27T04:36:36.926Z,15.6
2017-09-27T04:37:37.012Z,15.46
2017-09-27T04:38:36.871Z,15.47
2017-09-27T04:39:36.540Z,15.52
2017-09-27T04:40:36.528Z,15.53
2017-09-27T04:41:36.194Z,15.53
2017-09-27T04:42:36.502Z,15.52
2017-09-27T04:43:36.479Z,15.58
2017-09-27T04:44:36.449Z,15.57
2017-09-27T04:45:36.859Z,15.53
2017-09-27T04:46:36.410Z,15.5
2017-09-27T04:47:36.409Z,15.46
2017-09-27T04:48:36.692Z,15.57
2017-09-27T04:49:36.682Z,15.47
2017-09-27T04:50:36.349Z,15.53
2017-09-27T04:51:36.639Z,15.52
2017-09-27T04:52:36.621Z,15.47
2017-09-27T04:53:36.332Z,15.57
2017-09-27T04:54:36.579Z,15.54
2017-09-27T04:55:36.263Z,15.52
2017-09-27T04:56:36.240Z,15.6
2017-09-27T04:57:35.909Z,15.5
2017-09-27T04:58:35.889Z,15.49
2017-09-27T04:59:35.882Z,15.57
2017-09-27T05:00:36.498Z,15.53
2017-09-27T05:01:36.141Z,15.52
2017-09-27T05:02:36.436Z,15.5
2017-09-27T05:03:36.110Z,15.49
2017-09-27T05:04:36.433Z,15.47
2017-09-27T05:05:36.081Z,15.53
2017-09-27T05:06:36.060Z,15.46
2017-09-27T05:07:36.348Z,15.47
2017-09-27T05:08:36.018Z,15.5
2017-09-27T05:09:36.320Z,15.46
2017-09-27T05:10:35.990Z,15.46
2017-09-27T05:11:35.969Z,15.46
2017-09-27T05:12:35.961Z,15.43
2017-09-27T05:13:35.929Z,15.4
2017-09-27T05:14:36.220Z,15.46
2017-09-27T05:15:35.905Z,15.44
2017-09-27T05:16:35.883Z,15.46
2017-09-27T05:17:36.179Z,15.49
2017-09-27T05:18:35.540Z,15.46
2017-09-27T05:19:36.127Z,15.49
2017-09-27T05:20:36.157Z,15.4
2017-09-27T05:21:36.097Z,15.42
2017-09-27T05:22:36.123Z,15.43
2017-09-27T05:23:35.742Z,15.44
2017-09-27T05:24:36.168Z,15.5
2017-09-27T05:25:36.030Z,15.4
2017-09-27T05:26:36.138Z,15.5
2017-09-27T05:27:35.987Z,15.47
2017-09-27T05:28:36.082Z,15.42
2017-09-27T05:29:35.972Z,15.42
2017-09-27T05:30:35.718Z,15.44
2017-09-27T05:31:35.930Z,15.34
2017-09-27T05:32:35.918Z,15.35
2017-09-27T05:33:35.890Z,15.39
2017-09-27T05:34:35.882Z,15.4
2017-09-27T05:35:35.864Z,15.43
2017-09-27T05:36:35.857Z,15.35
2017-09-27T05:37:35.824Z,15.27
2017-09-27T05:38:35.861Z,15.27
2017-09-27T05:39:35.479Z,15.22
2017-09-27T05:40:35.466Z,15.17
2017-09-27T05:41:35.438Z,15.17
2017-09-27T05:42:35.509Z,15.27
2017-09-27T05:43:35.408Z,15.25
2017-09-27T05:44:35.715Z,15.22
2017-09-27T05:45:35.678Z,15.21
2017-09-27T05:46:35.690Z,15.27
2017-09-27T05:47:35.690Z,15.25
2017-09-27T05:48:35.621Z,15.24
2017-09-27T05:49:35.353Z,15.32
2017-09-27T05:50:35.640Z,15.32
2017-09-27T05:51:35.558Z,15.31
2017-09-27T05:52:35.549Z,15.27
2017-09-27T05:53:35.240Z,15.31
2017-09-27T05:54:35.520Z,15.32
2017-09-27T05:55:35.188Z,15.39
2017-09-27T05:56:35.552Z,15.37
2017-09-27T05:57:35.149Z,15.34
2017-09-27T05:58:35.442Z,15.27
2017-09-27T05:59:35.436Z,15.32
2017-09-27T06:00:35.108Z,15.21
2017-09-27T06:01:35.389Z,15.34
2017-09-27T06:02:35.460Z,15.31
2017-09-27T06:03:35.449Z,15.39
2017-09-27T06:04:35.080Z,15.35
2017-09-27T06:05:35.319Z,15.37
2017-09-27T06:06:34.985Z,15.32
2017-09-27T06:07:35.277Z,15.34
2017-09-27T06:08:35.248Z,15.32
2017-09-27T06:09:35.341Z,15.31
2017-09-27T06:10:34.902Z,15.31
2017-09-27T06:11:34.899Z,15.43
2017-09-27T06:12:34.571Z,15.29
2017-09-27T06:13:35.180Z,15.35
2017-09-27T06:14:35.250Z,15.21
2017-09-27T06:15:35.170Z,15.28
2017-09-27T06:16:34.791Z,15.34
2017-09-27T06:17:34.789Z,15.31
2017-09-27T06:18:34.458Z,15.34
2017-09-27T06:19:34.767Z,15.34
2017-09-27T06:20:34.419Z,15.32
2017-09-27T06:21:34.763Z,15.42
2017-09-27T06:22:34.689Z,15.42
2017-09-27T06:23:34.678Z,15.44
2017-09-27T06:24:35.041Z,15.49
2017-09-27T06:25:34.330Z,15.39
2017-09-27T06:26:34.979Z,15.39
2017-09-27T06:27:34.977Z,15.39
2017-09-27T06:28:34.902Z,15.44
2017-09-27T06:29:34.568Z,15.4
2017-09-27T06:30:34.863Z,15.37
2017-09-27T06:31:34.548Z,15.37
2017-09-27T06:32:34.869Z,15.37
2017-09-27T06:33:34.819Z,15.37
2017-09-27T06:34:34.798Z,15.42
2017-09-27T06:35:34.470Z,15.35
2017-09-27T06:36:34.487Z,15.34
2017-09-27T06:37:34.440Z,15.47
2017-09-27T06:38:34.781Z,15.39
2017-09-27T06:39:34.401Z,15.32
2017-09-27T06:40:34.371Z,15.35
2017-09-27T06:41:34.700Z,15.32
2017-09-27T06:42:34.338Z,15.43
2017-09-27T06:43:34.318Z,15.39
2017-09-27T06:44:34.298Z,15.42
2017-09-27T06:45:34.288Z,15.46
2017-09-27T06:46:34.580Z,15.46
2017-09-27T06:47:33.941Z,15.49
2017-09-27T06:48:34.226Z,15.53
2017-09-27T06:49:34.208Z,15.49
2017-09-27T06:50:34.200Z,15.42
2017-09-27T06:51:34.479Z,15.52
2017-09-27T06:52:34.499Z,15.5
2017-09-27T06:53:34.141Z,15.47
2017-09-27T06:54:34.427Z,15.43
2017-09-27T06:55:33.788Z,15.54
2017-09-27T06:56:34.389Z,15.57
2017-09-27T06:57:34.390Z,15.54
2017-09-27T06:58:34.051Z,15.5
2017-09-27T06:59:34.348Z,15.47
2017-09-27T07:00:34.007Z,15.54
2017-09-27T07:01:34.008Z,15.47
2017-09-27T07:02:34.298Z,15.42
2017-09-27T07:03:34.273Z,15.43
2017-09-27T07:04:33.633Z,15.32
2017-09-27T07:05:33.918Z,15.32
2017-09-27T07:06:33.898Z,15.4
2017-09-27T07:07:33.890Z,15.35
2017-09-27T07:08:33.925Z,15.25
2017-09-27T07:09:33.851Z,15.29
2017-09-27T07:10:33.538Z,15.37
2017-09-27T07:11:33.834Z,15.24
2017-09-27T07:12:34.108Z,15.29
2017-09-27T07:13:34.089Z,15.44
2017-09-27T07:14:33.778Z,15.39
2017-09-27T07:15:34.058Z,15.46
2017-09-27T07:16:34.062Z,15.5
2017-09-27T07:17:33.716Z,15.54
2017-09-27T07:18:34.009Z,15.47
2017-09-27T07:19:33.693Z,15.44
2017-09-27T07:20:33.663Z,15.34
2017-09-27T07:21:33.331Z,15.24
2017-09-27T07:22:33.928Z,15.24
2017-09-27T07:23:34.001Z,15.28
2017-09-27T07:24:33.599Z,15.28
2017-09-27T07:25:33.580Z,15.28
2017-09-27T07:26:33.551Z,15.29
2017-09-27T07:27:33.543Z,15.31
2017-09-27T07:28:33.509Z,15.39
2017-09-27T07:29:33.497Z,15.43
2017-09-27T07:30:33.798Z,15.53
2017-09-27T07:31:33.778Z,15.54
2017-09-27T07:32:33.473Z,15.52
2017-09-27T07:33:33.749Z,15.47
2017-09-27T07:34:33.719Z,15.49
2017-09-27T07:35:33.710Z,15.43
2017-09-27T07:36:33.679Z,15.43
2017-09-27T07:37:33.670Z,15.37
2017-09-27T07:38:33.669Z,15.43
2017-09-27T07:39:33.620Z,15.46
2017-09-27T07:40:33.621Z,15.47
2017-09-27T07:41:33.595Z,15.5
2017-09-27T07:42:33.582Z,15.54
2017-09-27T07:43:33.552Z,15.4
2017-09-27T07:44:33.557Z,15.31
2017-09-27T07:45:33.524Z,15.4
2017-09-27T07:46:33.215Z,15.29
2017-09-27T07:47:33.498Z,15.32
2017-09-27T07:48:33.484Z,15.34
2017-09-27T07:49:33.464Z,15.25
2017-09-27T07:50:33.445Z,15.29
2017-09-27T07:51:33.422Z,15.22
2017-09-27T07:52:33.410Z,15.2
2017-09-27T07:53:33.419Z,15.16
2017-09-27T07:54:33.047Z,15.2
2017-09-27T07:55:33.028Z,15.35
2017-09-27T07:56:33.328Z,15.32
2017-09-27T07:57:33.318Z,15.32
2017-09-27T07:58:32.980Z,15.28
2017-09-27T07:59:32.960Z,15.27
2017-09-27T08:00:32.932Z,15.35
2017-09-27T08:01:32.920Z,15.4
2017-09-27T08:02:32.918Z,15.52
2017-09-27T08:03:32.891Z,15.52
2017-09-27T08:04:32.559Z,15.61
2017-09-27T08:05:32.858Z,15.54
2017-09-27T08:06:33.160Z,15.49
2017-09-27T08:07:32.829Z,15.54
2017-09-27T08:08:32.800Z,15.61
2017-09-27T08:09:33.092Z,15.54
2017-09-27T08:10:33.091Z,15.75
2017-09-27T08:11:32.772Z,15.83
2017-09-27T08:12:33.053Z,15.86
2017-09-27T08:13:33.023Z,15.77
2017-09-27T08:14:32.689Z,15.85
2017-09-27T08:15:32.989Z,15.79
2017-09-27T08:16:32.977Z,15.71
2017-09-27T08:17:32.652Z,15.69
2017-09-27T08:18:32.624Z,15.76
2017-09-27T08:19:32.634Z,15.71
2017-09-27T08:20:32.598Z,15.54
2017-09-27T08:21:32.879Z,15.61
2017-09-27T08:22:32.860Z,15.71
2017-09-27T08:23:32.540Z,15.68
2017-09-27T08:24:32.820Z,15.76
2017-09-27T08:25:32.818Z,15.8
2017-09-27T08:26:32.483Z,15.87
2017-09-27T08:27:32.790Z,16
2017-09-27T08:28:32.760Z,15.97
2017-09-27T08:29:32.421Z,15.98
2017-09-27T08:30:32.407Z,15.95
2017-09-27T08:31:32.402Z,15.98
2017-09-27T08:32:32.710Z,16.02
2017-09-27T08:33:32.353Z,16.1
2017-09-27T08:34:32.346Z,16.15
2017-09-27T08:35:32.631Z,16.15
2017-09-27T08:36:32.623Z,16.2
2017-09-27T08:37:32.601Z,16.21
2017-09-27T08:38:32.590Z,16.23
2017-09-27T08:39:32.581Z,16.21
2017-09-27T08:40:32.262Z,16.13
2017-09-27T08:41:32.543Z,16.32
2017-09-27T08:42:32.524Z,16.35
2017-09-27T08:43:32.494Z,16.36
2017-09-27T08:44:32.481Z,16.32
2017-09-27T08:45:31.860Z,16.31
2017-09-27T08:46:32.152Z,16.35
2017-09-27T08:47:32.441Z,16.45
2017-09-27T08:48:32.104Z,16.61
2017-09-27T08:49:32.491Z,16.76
2017-09-27T08:50:32.381Z,16.79
2017-09-27T08:51:32.071Z,16.87
2017-09-27T08:52:32.350Z,16.98
2017-09-27T08:53:32.031Z,17.14
2017-09-27T08:54:32.311Z,17.3
2017-09-27T08:55:32.306Z,17.52
2017-09-27T08:56:31.991Z,17.96
2017-09-27T08:57:32.264Z,18.29
2017-09-27T08:58:32.270Z,18.67
2017-09-27T08:59:31.613Z,18.78
2017-09-27T09:00:31.915Z,19.02
2017-09-27T09:01:31.906Z,19.22
2017-09-27T09:02:31.925Z,19.43
2017-09-27T09:03:31.876Z,19.56
2017-09-27T09:04:32.184Z,19.78
2017-09-27T09:05:32.164Z,19.93
2017-09-27T09:06:32.130Z,20.08
2017-09-27T09:07:32.112Z,20.26
2017-09-27T09:08:31.801Z,20.63
2017-09-27T09:09:32.111Z,20.79
2017-09-27T09:10:32.111Z,21.21
2017-09-27T09:11:31.766Z,21.46
2017-09-27T09:12:31.747Z,21.95
2017-09-27T09:13:31.742Z,22.33
2017-09-27T09:14:32.051Z,22.52
2017-09-27T09:15:32.140Z,22.74
2017-09-27T09:16:32.031Z,22.94
2017-09-27T09:17:31.500Z,22.91
2017-09-27T09:18:31.709Z,22.7
2017-09-27T09:19:31.699Z,22.51
2017-09-27T09:20:31.368Z,22.69
2017-09-27T09:21:31.731Z,22.45
2017-09-27T09:22:31.672Z,22.55
2017-09-27T09:23:31.970Z,22.84
2017-09-27T09:24:31.968Z,23.04
2017-09-27T09:25:31.637Z,23.35
2017-09-27T09:26:32.101Z,23.57
2017-09-27T09:27:31.968Z,23.12
2017-09-27T09:28:31.297Z,23.47
2017-09-27T09:29:31.642Z,23.54
2017-09-27T09:30:31.958Z,23.85
2017-09-27T09:31:31.585Z,24.09
2017-09-27T09:32:31.905Z,24.04
2017-09-27T09:33:31.879Z,24.39
2017-09-27T09:34:31.580Z,23.81
2017-09-27T09:35:31.895Z,23.27
2017-09-27T09:36:31.251Z,23.45
2017-09-27T09:37:31.878Z,23.67
2017-09-27T09:38:31.546Z,23.14
2017-09-27T09:39:31.829Z,22.72
2017-09-27T09:40:31.841Z,22.91
2017-09-27T09:41:31.832Z,22.98
2017-09-27T09:42:31.498Z,23.02
2017-09-27T09:43:31.818Z,22.77
2017-09-27T09:44:31.508Z,22.84
2017-09-27T09:45:31.798Z,22.87
2017-09-27T09:46:31.780Z,22.69
2017-09-27T09:47:31.485Z,22.59
2017-09-27T09:48:31.491Z,22.37
2017-09-27T09:49:31.151Z,22.24
2017-09-27T09:50:31.774Z,22.21
2017-09-27T09:51:31.450Z,22.33
2017-09-27T09:52:31.490Z,22.17
2017-09-27T09:53:31.729Z,22.24
2017-09-27T09:54:31.399Z,22.37
2017-09-27T09:55:31.709Z,22.51
2017-09-27T09:56:31.386Z,23.04
2017-09-27T09:57:31.688Z,23.35
2017-09-27T09:58:31.681Z,23.32
2017-09-27T09:59:31.390Z,23.22
2017-09-27T10:00:31.711Z,23.06
2017-09-27T10:01:31.778Z,22.95
2017-09-27T10:02:31.349Z,23.41
2017-09-27T10:03:31.348Z,23.78
2017-09-27T10:04:31.366Z,24.33
2017-09-27T10:05:31.387Z,24.77
2017-09-27T10:06:31.469Z,24.95
2017-09-27T10:07:31.341Z,25.11
2017-09-27T10:08:31.289Z,24.8
2017-09-27T10:09:31.285Z,24.36
2017-09-27T10:10:31.270Z,24.32
2017-09-27T10:11:31.311Z,24.09
2017-09-27T10:12:31.255Z,23.96
2017-09-27T10:13:31.631Z,23.89
2017-09-27T10:14:31.249Z,23.95
2017-09-27T10:15:31.241Z,23.78
2017-09-27T10:16:31.583Z,23.78
2017-09-27T10:17:31.519Z,23.7
2017-09-27T10:18:31.222Z,23.1
2017-09-27T10:19:31.500Z,22.52
2017-09-27T10:20:31.556Z,22.74
2017-09-27T10:21:31.216Z,22.98
2017-09-27T10:22:31.201Z,23.09
2017-09-27T10:23:31.492Z,23.32
2017-09-27T10:24:31.463Z,23.29
2017-09-27T10:25:31.172Z,23.32
2017-09-27T10:26:31.136Z,23.16
2017-09-27T10:27:31.137Z,23.27
2017-09-27T10:28:31.418Z,23.33
2017-09-27T10:29:31.419Z,23.41
2017-09-27T10:30:31.400Z,23.44
2017-09-27T10:31:31.093Z,23.59
2017-09-27T10:32:31.370Z,23.6
2017-09-27T10:33:31.374Z,23.73
2017-09-27T10:34:31.374Z,23.89
2017-09-27T10:35:31.351Z,24.04
2017-09-27T10:36:31.349Z,24.09
2017-09-27T10:37:31.351Z,24.43
2017-09-27T10:38:31.332Z,24.57
2017-09-27T10:39:31.016Z,24.89
2017-09-27T10:40:31.312Z,25.25
2017-09-27T10:41:31.309Z,25.48
2017-09-27T10:42:31.289Z,25.77
2017-09-27T10:43:31.298Z,25.92
2017-09-27T10:44:31.265Z,26.17
2017-09-27T10:45:30.953Z,26.44
2017-09-27T10:46:30.965Z,26.48
2017-09-27T10:47:31.233Z,26.48
2017-09-27T10:48:30.930Z,26.33
2017-09-27T10:49:31.218Z,26.27
2017-09-27T10:50:31.236Z,26.39
2017-09-27T10:51:31.322Z,26.42
2017-09-27T10:52:31.201Z,26.57
2017-09-27T10:53:31.221Z,26.52
2017-09-27T10:54:31.205Z,26.54
2017-09-27T10:55:31.180Z,26.74
2017-09-27T10:56:30.850Z,26.85
2017-09-27T10:57:31.165Z,27.01
2017-09-27T10:58:31.171Z,27.06
2017-09-27T10:59:31.192Z,26.98
2017-09-27T11:00:31.144Z,26.94
2017-09-27T11:01:31.224Z,26.78
2017-09-27T11:02:31.176Z,26.47
2017-09-27T11:03:30.804Z,26.33
2017-09-27T11:04:31.180Z,26.32
2017-09-27T11:05:31.167Z,26.27
2017-09-27T11:06:31.115Z,26.01
2017-09-27T11:07:31.120Z,26
2017-09-27T11:08:31.075Z,26.27
2017-09-27T11:09:31.059Z,26.56
2017-09-27T11:10:31.073Z,26.6
2017-09-27T11:11:30.728Z,26.56
2017-09-27T11:12:30.769Z,26.67
2017-09-27T11:13:30.720Z,26.76
2017-09-27T11:14:30.699Z,26.76
2017-09-27T11:15:31.005Z,26.82
2017-09-27T11:16:30.673Z,26.81
2017-09-27T11:17:30.993Z,26.61
2017-09-27T11:18:30.974Z,26.57
2017-09-27T11:19:30.650Z,26.67
2017-09-27T11:20:30.971Z,26.82
2017-09-27T11:21:30.642Z,26.75
2017-09-27T11:22:30.946Z,26.82
2017-09-27T11:23:30.940Z,26.85
2017-09-27T11:24:30.620Z,27.04
2017-09-27T11:25:30.924Z,27.03
2017-09-27T11:26:30.899Z,27
2017-09-27T11:27:30.902Z,26.94
2017-09-27T11:28:30.892Z,27.03
2017-09-27T11:29:30.578Z,27.03
2017-09-27T11:30:30.556Z,27.03
2017-09-27T11:31:30.850Z,27.03
2017-09-27T11:32:30.541Z,27.09
2017-09-27T11:33:30.840Z,27.22
2017-09-27T11:34:30.846Z,27.16
2017-09-27T11:35:30.509Z,27.16
2017-09-27T11:36:30.267Z,27.18
2017-09-27T11:37:30.819Z,27.16
2017-09-27T11:38:30.899Z,27.23
2017-09-27T11:39:30.872Z,27.13
2017-09-27T11:40:30.900Z,27.01
2017-09-27T11:41:30.792Z,26.88
2017-09-27T11:42:30.779Z,26.69
2017-09-27T11:43:30.472Z,26.37
2017-09-27T11:44:30.528Z,26.41
2017-09-27T11:45:30.752Z,25.58
2017-09-27T11:46:30.729Z,25.52
2017-09-27T11:47:30.409Z,25.79
2017-09-27T11:48:30.799Z,25.84
2017-09-27T11:49:31.431Z,25.7
2017-09-27T11:50:30.747Z,25.45
2017-09-27T11:51:30.379Z,25.71
2017-09-27T11:52:30.689Z,26.07
2017-09-27T11:53:30.749Z,26.44
2017-09-27T11:54:30.775Z,26.7
2017-09-27T11:55:30.663Z,26.82
2017-09-27T11:56:30.632Z,27.12
2017-09-27T11:57:30.659Z,27.21
2017-09-27T11:58:30.319Z,27.31
2017-09-27T11:59:30.631Z,27.36
2017-09-27T12:00:29.997Z,27.18
2017-09-27T12:01:30.286Z,26.86
2017-09-27T12:02:30.273Z,26.96
2017-09-27T12:03:29.978Z,27.03
2017-09-27T12:04:29.958Z,27
2017-09-27T12:05:30.551Z,27.03
2017-09-27T12:06:30.242Z,26.85
2017-09-27T12:07:30.251Z,26.82
2017-09-27T12:08:30.238Z,26.85
2017-09-27T12:09:30.218Z,26.75
2017-09-27T12:10:30.516Z,26.6
2017-09-27T12:11:30.201Z,26.75
2017-09-27T12:12:30.503Z,26.69
2017-09-27T12:13:30.198Z,26.42
2017-09-27T12:14:30.487Z,26.48
2017-09-27T12:15:30.188Z,26.63
2017-09-27T12:16:30.180Z,26.75
2017-09-27T12:17:30.466Z,26.84
2017-09-27T12:18:30.466Z,27.04
2017-09-27T12:19:30.437Z,27.19
2017-09-27T12:20:30.115Z,27.28
2017-09-27T12:21:30.450Z,27.31
2017-09-27T12:22:30.520Z,27.09
2017-09-27T12:23:29.894Z,26.84
2017-09-27T12:24:30.091Z,26.74
2017-09-27T12:25:29.779Z,26.6
2017-09-27T12:26:30.484Z,26.47
2017-09-27T12:27:30.080Z,26.54
2017-09-27T12:28:30.368Z,26.82
2017-09-27T12:29:30.077Z,27.01
2017-09-27T12:30:30.070Z,27.03
2017-09-27T12:31:30.397Z,27.11
2017-09-27T12:32:30.047Z,26.84
2017-09-27T12:33:30.017Z,26.81
2017-09-27T12:34:30.007Z,26.54
2017-09-27T12:35:30.330Z,26.64
2017-09-27T12:36:30.358Z,26.82
2017-09-27T12:37:30.360Z,26.84
2017-09-27T12:38:30.300Z,26.27
2017-09-27T12:39:30.308Z,26.01
2017-09-27T12:40:29.979Z,26.29
2017-09-27T12:41:30.267Z,26.41
2017-09-27T12:42:30.327Z,26.69
2017-09-27T12:43:30.286Z,26.78
2017-09-27T12:44:29.926Z,26.38
2017-09-27T12:45:29.904Z,26.32
2017-09-27T12:46:30.208Z,26.27
2017-09-27T12:47:30.198Z,26.34
2017-09-27T12:48:30.197Z,26.52
2017-09-27T12:49:30.175Z,26.78
2017-09-27T12:50:30.175Z,26.82
2017-09-27T12:51:29.863Z,26.78
2017-09-27T12:52:30.155Z,26.75
2017-09-27T12:53:30.161Z,26.66
2017-09-27T12:54:29.809Z,26.67
2017-09-27T12:55:30.148Z,26.64